Pluckemin, New Jersey
Current Conditions -  °F | °C
As of 12:53 PM on Wednesday 28 Jan 2015 (Local Time) from KSMQ Reporting Station
Clear Clear  
Wind Chill: 21°   Ceiling: Unl
Heat Index: 31°   Visibility: 10mi
Dew Point: 10°   Wind: 13mph
Humidity: 42%   Direction: 320°NW
Pressure: 30.07"   Gusts: 25mph
Location:  40.65°N, 74.64°W
Report Text: KSMQ 281753Z AUTO 32011G22KT 10SM CLR M01/M12 A3007 RMK AO2 SLP185 T10061122 11006 21078 58002 TSNO
Loading
Personal Weather Stations






























Interactive Weather Map New forecast layout! Learn more

10-Day Weather Forecast

Advertisements
Track Severe Weather on mobile